Roslyn — WDH3835 — position and weather

sailwx.info

Track history (hours):
 
Tides and Currents Weather Stations Pressure Air Temp Water Temp Dewpoint Dewpoint Depression Visibility Wind Speed Wind Dir Waves Ship Positions

Roslyn

Owner: N.R. Broussard Landing, Inc., Abbeville, LA. More information available from US FCC via Universal Licensing System and Coast Guard Vessel Documentation Center.

Last reported at 2018-Feb-21 17:23 UTC. Time now 2018-Feb-22 04:48 UTC.
Position N 29°34' W 090°28'.

Length 20 m; draft 2.5 m.

Type: Tug. MMSI: 367611430.

Date/timePositionNaut miles runAvg speedWind from/ knotsBaromVisibWave heightAir tempDewpointWater temp
2018-Feb-21 17:23N 29°34' W 090°28'2 5.6
2018-Feb-21 17:00N 29°34' W 090°31'3 5.8
2018-Feb-21 16:31N 29°34' W 090°34'3 5.7
2018-Feb-21 16:01N 29°35' W 090°37'3 5.7
2018-Feb-21 15:30N 29°36' W 090°40'2 4.0
2018-Feb-21 15:01N 29°36' W 090°43'2 4.7
2018-Feb-21 14:31N 29°34' W 090°44'1 1.0
2018-Feb-21 14:01N 29°34' W 090°45'1 1.3
2018-Feb-21 13:31N 29°33' W 090°45'3 5.7
2018-Feb-21 13:00N 29°32' W 090°48'67 4.7
2018-Feb-20 22:53N 29°49' W 092°02'2 6.4
2018-Feb-20 22:30N 29°48' W 092°05'3 6.4
2018-Feb-20 22:01N 29°47' W 092°08'2 3.5
2018-Feb-20 21:29N 29°47' W 092°10'1 1.1
2018-Feb-20 21:01N 29°47' W 092°11'0 0.9
2018-Feb-20 20:31N 29°47' W 092°10'0 0.5
2018-Feb-20 20:00N 29°47' W 092°11'1 1.0
2018-Feb-20 19:31N 29°47' W 092°11'0 0.0
2018-Feb-20 19:01N 29°47' W 092°11'0 0.9
2018-Feb-20 18:31N 29°47' W 092°11'0 0.0
2018-Feb-20 17:59N 29°47' W 092°11'0 0.0
2018-Feb-20 17:31N 29°47' W 092°11'0 0.0
2018-Feb-20 17:01N 29°47' W 092°11'0 0.0
2018-Feb-20 16:25N 29°47' W 092°11'0 0.0
2018-Feb-20 16:00N 29°47' W 092°11'0 0.0
2018-Feb-20 15:23N 29°47' W 092°11'0 0.0
2018-Feb-20 15:00N 29°47' W 092°11'0 0.0
2018-Feb-20 14:31N 29°47' W 092°11'0 0.0
2018-Feb-20 13:54N 29°47' W 092°11'0 0.0
2018-Feb-20 13:31N 29°47' W 092°11'0 0.0
2018-Feb-20 12:58N 29°47' W 092°11'0 0.0
2018-Feb-20 12:31N 29°47' W 092°11'0 0.0
2018-Feb-20 12:01N 29°47' W 092°11'0 0.0
2018-Feb-20 11:30N 29°47' W 092°11'0 0.0
2018-Feb-20 10:57N 29°47' W 092°11'0 0.0
2018-Feb-20 10:30N 29°47' W 092°11'0 0.0
2018-Feb-20 10:01N 29°47' W 092°11'0 0.0
2018-Feb-20 09:30N 29°47' W 092°11'0 0.0
2018-Feb-20 08:56N 29°47' W 092°11'0 0.0
2018-Feb-20 08:22N 29°47' W 092°11'0 0.0
2018-Feb-20 07:58N 29°47' W 092°11'0 0.0
2018-Feb-20 07:30N 29°47' W 092°11'0 0.0
2018-Feb-20 07:01N 29°47' W 092°11'0 0.0
2018-Feb-20 06:29N 29°47' W 092°11'0 0.0
2018-Feb-20 05:56N 29°47' W 092°11'0 0.0
2018-Feb-20 05:29N 29°47' W 092°11'0 0.0
2018-Feb-20 05:01N 29°47' W 092°11'0 0.0
2018-Feb-20 04:28N 29°47' W 092°11'0 0.0
2018-Feb-20 03:58N 29°47' W 092°11'2 3.4
2018-Feb-20 03:30N 29°47' W 092°12'0 0.8
2018-Feb-20 03:00N 29°47' W 092°13'3 6.4
2018-Feb-20 02:30N 29°49' W 092°16'  
Track history (hours):
 
Tides and Currents Weather Stations Pressure Air Temp Water Temp Dewpoint Dewpoint Depression Visibility Wind Speed Wind Dir Waves Ship Positions

Roslyn

Owner: N.R. Broussard Landing, Inc., Abbeville, LA. More information available from US FCC via Universal Licensing System and Coast Guard Vessel Documentation Center.

Last reported at 2018-Feb-21 17:23 UTC. Time now 2018-Feb-22 04:48 UTC.
Position N 29°34' W 090°28'.

Length 20 m; draft 2.5 m.

Type: Tug. MMSI: 367611430.

Date/timePositionNaut miles runAvg speedWind from/ knotsBaromVisibWave heightAir tempDewpointWater temp
2018-Feb-21 17:23N 29°34' W 090°28'2 5.6
2018-Feb-21 17:00N 29°34' W 090°31'3 5.8
2018-Feb-21 16:31N 29°34' W 090°34'3 5.7
2018-Feb-21 16:01N 29°35' W 090°37'3 5.7
2018-Feb-21 15:30N 29°36' W 090°40'2 4.0
2018-Feb-21 15:01N 29°36' W 090°43'2 4.7
2018-Feb-21 14:31N 29°34' W 090°44'1 1.0
2018-Feb-21 14:01N 29°34' W 090°45'1 1.3
2018-Feb-21 13:31N 29°33' W 090°45'3 5.7
2018-Feb-21 13:00N 29°32' W 090°48'67 4.7
2018-Feb-20 22:53N 29°49' W 092°02'2 6.4
2018-Feb-20 22:30N 29°48' W 092°05'3 6.4
2018-Feb-20 22:01N 29°47' W 092°08'2 3.5
2018-Feb-20 21:29N 29°47' W 092°10'1 1.1
2018-Feb-20 21:01N 29°47' W 092°11'0 0.9
2018-Feb-20 20:31N 29°47' W 092°10'0 0.5
2018-Feb-20 20:00N 29°47' W 092°11'1 1.0
2018-Feb-20 19:31N 29°47' W 092°11'0 0.0
2018-Feb-20 19:01N 29°47' W 092°11'0 0.9
2018-Feb-20 18:31N 29°47' W 092°11'0 0.0
2018-Feb-20 17:59N 29°47' W 092°11'0 0.0
2018-Feb-20 17:31N 29°47' W 092°11'0 0.0
2018-Feb-20 17:01N 29°47' W 092°11'0 0.0
2018-Feb-20 16:25N 29°47' W 092°11'0 0.0
2018-Feb-20 16:00N 29°47' W 092°11'0 0.0
2018-Feb-20 15:23N 29°47' W 092°11'0 0.0
2018-Feb-20 15:00N 29°47' W 092°11'0 0.0
2018-Feb-20 14:31N 29°47' W 092°11'0 0.0
2018-Feb-20 13:54N 29°47' W 092°11'0 0.0
2018-Feb-20 13:31N 29°47' W 092°11'0 0.0
2018-Feb-20 12:58N 29°47' W 092°11'0 0.0
2018-Feb-20 12:31N 29°47' W 092°11'0 0.0
2018-Feb-20 12:01N 29°47' W 092°11'0 0.0
2018-Feb-20 11:30N 29°47' W 092°11'0 0.0
2018-Feb-20 10:57N 29°47' W 092°11'0 0.0
2018-Feb-20 10:30N 29°47' W 092°11'0 0.0
2018-Feb-20 10:01N 29°47' W 092°11'0 0.0
2018-Feb-20 09:30N 29°47' W 092°11'0 0.0
2018-Feb-20 08:56N 29°47' W 092°11'0 0.0
2018-Feb-20 08:22N 29°47' W 092°11'0 0.0
2018-Feb-20 07:58N 29°47' W 092°11'0 0.0
2018-Feb-20 07:30N 29°47' W 092°11'0 0.0
2018-Feb-20 07:01N 29°47' W 092°11'0 0.0
2018-Feb-20 06:29N 29°47' W 092°11'0 0.0
2018-Feb-20 05:56N 29°47' W 092°11'0 0.0
2018-Feb-20 05:29N 29°47' W 092°11'0 0.0
2018-Feb-20 05:01N 29°47' W 092°11'0 0.0
2018-Feb-20 04:28N 29°47' W 092°11'0 0.0
2018-Feb-20 03:58N 29°47' W 092°11'2 3.4
2018-Feb-20 03:30N 29°47' W 092°12'0 0.8
2018-Feb-20 03:00N 29°47' W 092°13'3 6.4
2018-Feb-20 02:30N 29°49' W 092°16'  

Dump ship's entire track history